sensor_id;sensor_type;location;lat;lon;timestamp;P1;durP1;ratioP1;P2;durP2;ratioP2
1048;SDS011;513;51.444;7.196;2023-06-01T00:00:54;5.82;;;3.70;;
1048;SDS011;513;51.444;7.196;2023-06-01T00:03:22;12.70;;;3.83;;
1048;SDS011;513;51.444;7.196;2023-06-01T00:05:50;8.00;;;4.20;;
1048;SDS011;513;51.444;7.196;2023-06-01T00:08:17;6.10;;;3.57;;
1048;SDS011;513;51.444;7.196;2023-06-01T00:10:45;6.00;;;3.80;;
1048;SDS011;513;51.444;7.196;2023-06-01T00:13:12;8.98;;;4.20;;
1048;SDS011;513;51.444;7.196;2023-06-01T00:15:39;9.23;;;4.67;;
1048;SDS011;513;51.444;7.196;2023-06-01T00:18:06;7.63;;;4.40;;
1048;SDS011;513;51.444;7.196;2023-06-01T00:20:37;10.65;;;4.82;;
1048;SDS011;513;51.444;7.196;2023-06-01T00:23:06;8.18;;;4.70;;
1048;SDS011;513;51.444;7.196;2023-06-01T00:25:33;10.40;;;4.72;;
1048;SDS011;513;51.444;7.196;2023-06-01T00:28:00;10.13;;;4.87;;
1048;SDS011;513;51.444;7.196;2023-06-01T00:30:28;8.95;;;4.88;;
1048;SDS011;513;51.444;7.196;2023-06-01T00:32:55;8.13;;;4.63;;
1048;SDS011;513;51.444;7.196;2023-06-01T00:35:22;10.40;;;5.13;;
1048;SDS011;513;51.444;7.196;2023-06-01T00:37:49;9.05;;;5.40;;
1048;SDS011;513;51.444;7.196;2023-06-01T00:40:17;8.07;;;5.10;;
1048;SDS011;513;51.444;7.196;2023-06-01T00:42:44;9.15;;;5.10;;
1048;SDS011;513;51.444;7.196;2023-06-01T00:45:11;10.75;;;5.55;;
1048;SDS011;513;51.444;7.196;2023-06-01T00:47:39;10.68;;;5.35;;
1048;SDS011;513;51.444;7.196;2023-06-01T00:50:07;10.45;;;5.47;;
1048;SDS011;513;51.444;7.196;2023-06-01T00:52:34;13.02;;;6.03;;
1048;SDS011;513;51.444;7.196;2023-06-01T00:55:02;10.63;;;5.95;;
1048;SDS011;513;51.444;7.196;2023-06-01T00:57:31;9.45;;;5.80;;
1048;SDS011;513;51.444;7.196;2023-06-01T00:59:58;11.50;;;6.10;;
1048;SDS011;513;51.444;7.196;2023-06-01T01:02:25;12.82;;;6.35;;
1048;SDS011;513;51.444;7.196;2023-06-01T01:04:56;13.07;;;6.73;;
1048;SDS011;513;51.444;7.196;2023-06-01T01:07:25;11.10;;;6.60;;
1048;SDS011;513;51.444;7.196;2023-06-01T01:09:56;13.15;;;6.47;;
1048;SDS011;513;51.444;7.196;2023-06-01T01:12:26;13.30;;;5.80;;
1048;SDS011;513;51.444;7.196;2023-06-01T01:14:59;10.60;;;6.00;;
1048;SDS011;513;51.444;7.196;2023-06-01T01:17:30;10.80;;;6.50;;
1048;SDS011;513;51.444;7.196;2023-06-01T01:19:59;11.55;;;6.65;;
1048;SDS011;513;51.444;7.196;2023-06-01T01:22:43;12.43;;;7.57;;
1048;SDS011;513;51.444;7.196;2023-06-01T01:25:19;11.88;;;7.43;;
1048;SDS011;513;51.444;7.196;2023-06-01T01:27:51;12.18;;;7.80;;
1048;SDS011;513;51.444;7.196;2023-06-01T01:30:26;14.75;;;6.93;;
1048;SDS011;513;51.444;7.196;2023-06-01T01:32:56;12.20;;;8.50;;
1048;SDS011;513;51.444;7.196;2023-06-01T01:35:24;14.35;;;8.30;;
1048;SDS011;513;51.444;7.196;2023-06-01T01:37:53;15.30;;;8.73;;
1048;SDS011;513;51.444;7.196;2023-06-01T01:40:20;16.20;;;8.40;;
1048;SDS011;513;51.444;7.196;2023-06-01T01:42:48;14.38;;;8.32;;
1048;SDS011;513;51.444;7.196;2023-06-01T01:45:15;14.40;;;8.43;;
1048;SDS011;513;51.444;7.196;2023-06-01T01:47:48;16.63;;;8.70;;
1048;SDS011;513;51.444;7.196;2023-06-01T01:50:15;12.70;;;9.00;;
1048;SDS011;513;51.444;7.196;2023-06-01T01:52:45;16.25;;;10.20;;
1048;SDS011;513;51.444;7.196;2023-06-01T01:55:13;15.73;;;9.80;;
1048;SDS011;513;51.444;7.196;2023-06-01T01:57:42;19.23;;;9.85;;
1048;SDS011;513;51.444;7.196;2023-06-01T02:00:11;20.08;;;11.20;;
1048;SDS011;513;51.444;7.196;2023-06-01T02:02:38;18.65;;;11.35;;
1048;SDS011;513;51.444;7.196;2023-06-01T02:05:07;17.85;;;10.68;;
1048;SDS011;513;51.444;7.196;2023-06-01T02:07:34;17.85;;;10.77;;
1048;SDS011;513;51.444;7.196;2023-06-01T02:10:01;17.95;;;11.18;;
1048;SDS011;513;51.444;7.196;2023-06-01T02:12:28;21.08;;;11.48;;
1048;SDS011;513;51.444;7.196;2023-06-01T02:14:55;20.38;;;11.57;;
1048;SDS011;513;51.444;7.196;2023-06-01T02:17:22;19.45;;;11.23;;
1048;SDS011;513;51.444;7.196;2023-06-01T02:19:51;20.38;;;12.20;;
1048;SDS011;513;51.444;7.196;2023-06-01T02:22:20;20.52;;;12.23;;
1048;SDS011;513;51.444;7.196;2023-06-01T02:24:47;20.52;;;11.05;;
1048;SDS011;513;51.444;7.196;2023-06-01T02:27:14;24.00;;;12.80;;
1048;SDS011;513;51.444;7.196;2023-06-01T02:29:41;24.67;;;12.85;;
1048;SDS011;513;51.444;7.196;2023-06-01T02:32:08;21.50;;;12.55;;
1048;SDS011;513;51.444;7.196;2023-06-01T02:34:35;23.30;;;13.33;;
1048;SDS011;513;51.444;7.196;2023-06-01T02:37:02;22.70;;;12.50;;
1048;SDS011;513;51.444;7.196;2023-06-01T02:39:31;21.55;;;12.40;;
1048;SDS011;513;51.444;7.196;2023-06-01T02:41:58;23.40;;;13.60;;
1048;SDS011;513;51.444;7.196;2023-06-01T02:44:25;22.85;;;13.27;;
1048;SDS011;513;51.444;7.196;2023-06-01T02:46:52;22.15;;;13.30;;
1048;SDS011;513;51.444;7.196;2023-06-01T02:49:19;26.27;;;14.30;;
1048;SDS011;513;51.444;7.196;2023-06-01T02:51:46;26.73;;;14.35;;
1048;SDS011;513;51.444;7.196;2023-06-01T02:54:13;25.33;;;14.40;;
1048;SDS011;513;51.444;7.196;2023-06-01T02:56:41;27.15;;;15.18;;
1048;SDS011;513;51.444;7.196;2023-06-01T02:59:08;24.88;;;15.05;;
1048;SDS011;513;51.444;7.196;2023-06-01T03:01:36;27.38;;;16.27;;
1048;SDS011;513;51.444;7.196;2023-06-01T03:04:03;28.00;;;15.68;;
1048;SDS011;513;51.444;7.196;2023-06-01T03:06:30;25.92;;;15.35;;
1048;SDS011;513;51.444;7.196;2023-06-01T03:08:57;34.53;;;17.75;;
1048;SDS011;513;51.444;7.196;2023-06-01T03:11:24;30.25;;;18.13;;
1048;SDS011;513;51.444;7.196;2023-06-01T03:13:52;30.17;;;18.45;;
1048;SDS011;513;51.444;7.196;2023-06-01T03:16:22;34.90;;;20.13;;
1048;SDS011;513;51.444;7.196;2023-06-01T03:18:49;33.05;;;20.23;;
1048;SDS011;513;51.444;7.196;2023-06-01T03:21:17;36.90;;;22.48;;
1048;SDS011;513;51.444;7.196;2023-06-01T03:23:44;38.97;;;22.92;;
1048;SDS011;513;51.444;7.196;2023-06-01T03:26:11;36.03;;;20.80;;
1048;SDS011;513;51.444;7.196;2023-06-01T03:28:39;43.42;;;24.48;;
1048;SDS011;513;51.444;7.196;2023-06-01T03:31:07;34.10;;;20.77;;
1048;SDS011;513;51.444;7.196;2023-06-01T03:33:36;41.65;;;25.75;;
1048;SDS011;513;51.444;7.196;2023-06-01T03:36:03;44.00;;;24.98;;
1048;SDS011;513;51.444;7.196;2023-06-01T03:38:32;38.93;;;23.63;;
1048;SDS011;513;51.444;7.196;2023-06-01T03:40:59;44.80;;;25.23;;
1048;SDS011;513;51.444;7.196;2023-06-01T03:43:26;40.40;;;24.92;;
1048;SDS011;513;51.444;7.196;2023-06-01T03:45:53;37.60;;;23.92;;
1048;SDS011;513;51.444;7.196;2023-06-01T03:48:22;37.88;;;23.83;;
1048;SDS011;513;51.444;7.196;2023-06-01T03:50:49;41.13;;;24.00;;
1048;SDS011;513;51.444;7.196;2023-06-01T03:53:16;38.90;;;23.03;;
1048;SDS011;513;51.444;7.196;2023-06-01T03:55:43;35.88;;;22.50;;
1048;SDS011;513;51.444;7.196;2023-06-01T03:58:10;39.83;;;24.38;;
1048;SDS011;513;51.444;7.196;2023-06-01T04:00:37;37.42;;;22.70;;
1048;SDS011;513;51.444;7.196;2023-06-01T04:03:04;36.25;;;22.55;;
1048;SDS011;513;51.444;7.196;2023-06-01T04:05:33;37.65;;;22.52;;
1048;SDS011;513;51.444;7.196;2023-06-01T04:08:01;37.60;;;22.38;;
1048;SDS011;513;51.444;7.196;2023-06-01T04:10:28;35.83;;;22.20;;
1048;SDS011;513;51.444;7.196;2023-06-01T04:12:55;33.42;;;21.77;;
1048;SDS011;513;51.444;7.196;2023-06-01T04:15:22;30.30;;;21.00;;
1048;SDS011;513;51.444;7.196;2023-06-01T04:17:49;33.97;;;21.73;;
1048;SDS011;513;51.444;7.196;2023-06-01T04:20:16;34.88;;;21.13;;
1048;SDS011;513;51.444;7.196;2023-06-01T04:22:45;35.45;;;21.88;;
1048;SDS011;513;51.444;7.196;2023-06-01T04:25:13;33.55;;;21.05;;
1048;SDS011;513;51.444;7.196;2023-06-01T04:27:42;38.00;;;23.27;;
1048;SDS011;513;51.444;7.196;2023-06-01T04:30:10;35.95;;;22.17;;
1048;SDS011;513;51.444;7.196;2023-06-01T04:32:38;34.15;;;21.05;;
1048;SDS011;513;51.444;7.196;2023-06-01T04:35:07;42.53;;;23.92;;
1048;SDS011;513;51.444;7.196;2023-06-01T04:37:35;36.50;;;22.25;;
1048;SDS011;513;51.444;7.196;2023-06-01T04:40:04;38.60;;;21.90;;
1048;SDS011;513;51.444;7.196;2023-06-01T04:42:33;36.53;;;22.48;;
1048;SDS011;513;51.444;7.196;2023-06-01T04:45:00;38.85;;;24.08;;
1048;SDS011;513;51.444;7.196;2023-06-01T04:47:29;34.33;;;20.48;;
1048;SDS011;513;51.444;7.196;2023-06-01T04:49:56;35.25;;;22.30;;
1048;SDS011;513;51.444;7.196;2023-06-01T04:52:23;41.22;;;23.65;;
1048;SDS011;513;51.444;7.196;2023-06-01T04:54:51;37.17;;;23.73;;
1048;SDS011;513;51.444;7.196;2023-06-01T04:57:19;29.73;;;19.05;;
1048;SDS011;513;51.444;7.196;2023-06-01T04:59:48;40.05;;;25.40;;
1048;SDS011;513;51.444;7.196;2023-06-01T05:02:16;38.13;;;23.85;;
1048;SDS011;513;51.444;7.196;2023-06-01T05:04:43;33.47;;;21.73;;
1048;SDS011;513;51.444;7.196;2023-06-01T05:07:10;34.13;;;21.48;;
1048;SDS011;513;51.444;7.196;2023-06-01T05:09:37;36.20;;;22.85;;
1048;SDS011;513;51.444;7.196;2023-06-01T05:12:05;38.10;;;24.70;;
1048;SDS011;513;51.444;7.196;2023-06-01T05:14:34;37.85;;;23.25;;
1048;SDS011;513;51.444;7.196;2023-06-01T05:17:01;37.07;;;23.13;;
1048;SDS011;513;51.444;7.196;2023-06-01T05:19:28;36.97;;;20.88;;
1048;SDS011;513;51.444;7.196;2023-06-01T05:21:55;40.67;;;22.08;;
1048;SDS011;513;51.444;7.196;2023-06-01T05:24:22;33.40;;;22.00;;
1048;SDS011;513;51.444;7.196;2023-06-01T05:26:49;38.83;;;23.73;;
1048;SDS011;513;51.444;7.196;2023-06-01T05:29:16;39.03;;;23.40;;
1048;SDS011;513;51.444;7.196;2023-06-01T05:31:45;38.80;;;23.57;;
1048;SDS011;513;51.444;7.196;2023-06-01T05:34:12;36.03;;;23.85;;
1048;SDS011;513;51.444;7.196;2023-06-01T05:36:39;34.00;;;19.85;;
1048;SDS011;513;51.444;7.196;2023-06-01T05:39:06;29.85;;;18.65;;
1048;SDS011;513;51.444;7.196;2023-06-01T05:41:34;32.50;;;20.08;;
1048;SDS011;513;51.444;7.196;2023-06-01T05:44:01;27.20;;;18.40;;
1048;SDS011;513;51.444;7.196;2023-06-01T05:46:28;34.45;;;20.13;;
1048;SDS011;513;51.444;7.196;2023-06-01T05:48:56;28.85;;;19.83;;
1048;SDS011;513;51.444;7.196;2023-06-01T05:51:23;30.77;;;20.02;;
1048;SDS011;513;51.444;7.196;2023-06-01T05:53:50;31.25;;;19.77;;
1048;SDS011;513;51.444;7.196;2023-06-01T05:56:17;28.90;;;19.25;;
1048;SDS011;513;51.444;7.196;2023-06-01T05:58:44;27.80;;;19.30;;
1048;SDS011;513;51.444;7.196;2023-06-01T06:01:15;28.92;;;19.77;;
1048;SDS011;513;51.444;7.196;2023-06-01T06:03:42;27.38;;;19.15;;
1048;SDS011;513;51.444;7.196;2023-06-01T06:06:11;28.45;;;18.92;;
1048;SDS011;513;51.444;7.196;2023-06-01T06:08:38;27.23;;;19.10;;
1048;SDS011;513;51.444;7.196;2023-06-01T06:11:05;25.10;;;18.75;;
1048;SDS011;513;51.444;7.196;2023-06-01T06:13:32;29.17;;;19.08;;
1048;SDS011;513;51.444;7.196;2023-06-01T06:15:59;25.45;;;18.85;;
1048;SDS011;513;51.444;7.196;2023-06-01T06:18:26;27.80;;;18.50;;
1048;SDS011;513;51.444;7.196;2023-06-01T06:20:53;26.35;;;18.02;;
1048;SDS011;513;51.444;7.196;2023-06-01T06:23:21;25.85;;;17.77;;
1048;SDS011;513;51.444;7.196;2023-06-01T06:25:49;23.73;;;16.88;;
1048;SDS011;513;51.444;7.196;2023-06-01T06:28:16;24.48;;;17.08;;
1048;SDS011;513;51.444;7.196;2023-06-01T06:30:43;24.00;;;17.13;;
1048;SDS011;513;51.444;7.196;2023-06-01T06:33:11;22.83;;;16.17;;
1048;SDS011;513;51.444;7.196;2023-06-01T06:35:38;22.80;;;15.18;;
1048;SDS011;513;51.444;7.196;2023-06-01T06:38:06;23.48;;;14.88;;
1048;SDS011;513;51.444;7.196;2023-06-01T06:40:34;21.50;;;14.40;;
1048;SDS011;513;51.444;7.196;2023-06-01T06:43:01;20.13;;;13.55;;
1048;SDS011;513;51.444;7.196;2023-06-01T06:45:28;20.75;;;14.18;;
1048;SDS011;513;51.444;7.196;2023-06-01T06:47:55;22.70;;;16.30;;
1048;SDS011;513;51.444;7.196;2023-06-01T06:50:22;21.52;;;15.63;;
1048;SDS011;513;51.444;7.196;2023-06-01T06:52:49;22.70;;;16.00;;
1048;SDS011;513;51.444;7.196;2023-06-01T06:55:16;22.30;;;15.45;;
1048;SDS011;513;51.444;7.196;2023-06-01T06:57:45;19.27;;;14.68;;
1048;SDS011;513;51.444;7.196;2023-06-01T07:00:12;22.98;;;15.75;;
1048;SDS011;513;51.444;7.196;2023-06-01T07:02:40;22.35;;;16.38;;
1048;SDS011;513;51.444;7.196;2023-06-01T07:05:09;23.02;;;15.23;;
1048;SDS011;513;51.444;7.196;2023-06-01T07:07:36;20.48;;;13.93;;
1048;SDS011;513;51.444;7.196;2023-06-01T07:10:04;21.77;;;15.45;;
1048;SDS011;513;51.444;7.196;2023-06-01T07:12:31;22.25;;;16.95;;
1048;SDS011;513;51.444;7.196;2023-06-01T07:15:01;24.38;;;15.35;;
1048;SDS011;513;51.444;7.196;2023-06-01T07:17:28;24.23;;;14.48;;
1048;SDS011;513;51.444;7.196;2023-06-01T07:19:55;20.83;;;13.88;;
1048;SDS011;513;51.444;7.196;2023-06-01T07:22:22;20.00;;;14.93;;
1048;SDS011;513;51.444;7.196;2023-06-01T07:24:49;20.50;;;14.45;;
1048;SDS011;513;51.444;7.196;2023-06-01T07:27:16;19.02;;;13.32;;
1048;SDS011;513;51.444;7.196;2023-06-01T07:29:45;20.48;;;14.65;;
1048;SDS011;513;51.444;7.196;2023-06-01T07:32:13;20.45;;;13.80;;
1048;SDS011;513;51.444;7.196;2023-06-01T07:34:40;21.60;;;14.68;;
1048;SDS011;513;51.444;7.196;2023-06-01T07:37:07;21.20;;;13.10;;
1048;SDS011;513;51.444;7.196;2023-06-01T07:39:35;19.65;;;13.30;;
1048;SDS011;513;51.444;7.196;2023-06-01T07:42:02;19.50;;;12.95;;
1048;SDS011;513;51.444;7.196;2023-06-01T07:44:29;20.58;;;13.35;;
1048;SDS011;513;51.444;7.196;2023-06-01T07:46:56;23.23;;;13.30;;
1048;SDS011;513;51.444;7.196;2023-06-01T07:49:25;18.48;;;12.23;;
1048;SDS011;513;51.444;7.196;2023-06-01T07:51:52;20.27;;;13.73;;
1048;SDS011;513;51.444;7.196;2023-06-01T07:54:19;19.23;;;12.70;;
1048;SDS011;513;51.444;7.196;2023-06-01T07:56:46;18.15;;;12.48;;
1048;SDS011;513;51.444;7.196;2023-06-01T07:59:13;21.27;;;13.53;;
1048;SDS011;513;51.444;7.196;2023-06-01T08:01:40;19.17;;;12.77;;
1048;SDS011;513;51.444;7.196;2023-06-01T08:04:07;19.52;;;13.32;;
1048;SDS011;513;51.444;7.196;2023-06-01T08:06:37;16.95;;;12.10;;
1048;SDS011;513;51.444;7.196;2023-06-01T08:09:06;20.98;;;13.63;;
1048;SDS011;513;51.444;7.196;2023-06-01T08:11:35;17.52;;;11.77;;
1048;SDS011;513;51.444;7.196;2023-06-01T08:14:02;17.52;;;11.77;;
1048;SDS011;513;51.444;7.196;2023-06-01T08:16:32;18.57;;;11.70;;
1048;SDS011;513;51.444;7.196;2023-06-01T08:18:59;18.87;;;11.40;;
1048;SDS011;513;51.444;7.196;2023-06-01T08:21:26;18.30;;;11.35;;
1048;SDS011;513;51.444;7.196;2023-06-01T08:23:55;21.40;;;11.70;;
1048;SDS011;513;51.444;7.196;2023-06-01T08:26:22;19.08;;;11.70;;
1048;SDS011;513;51.444;7.196;2023-06-01T08:28:50;19.02;;;11.82;;
1048;SDS011;513;51.444;7.196;2023-06-01T08:31:18;19.90;;;12.10;;
1048;SDS011;513;51.444;7.196;2023-06-01T08:33:45;16.55;;;11.52;;
1048;SDS011;513;51.444;7.196;2023-06-01T08:36:12;17.57;;;12.00;;
1048;SDS011;513;51.444;7.196;2023-06-01T08:38:39;19.60;;;12.25;;
1048;SDS011;513;51.444;7.196;2023-06-01T08:41:10;16.80;;;11.75;;
1048;SDS011;513;51.444;7.196;2023-06-01T08:43:38;19.48;;;11.90;;
1048;SDS011;513;51.444;7.196;2023-06-01T08:46:05;17.77;;;12.18;;
1048;SDS011;513;51.444;7.196;2023-06-01T08:48:32;15.88;;;10.57;;
1048;SDS011;513;51.444;7.196;2023-06-01T08:51:00;18.03;;;12.27;;
1048;SDS011;513;51.444;7.196;2023-06-01T08:53:28;18.98;;;12.40;;
1048;SDS011;513;51.444;7.196;2023-06-01T08:55:56;20.30;;;12.90;;
1048;SDS011;513;51.444;7.196;2023-06-01T08:58:25;19.42;;;13.05;;
1048;SDS011;513;51.444;7.196;2023-06-01T09:00:52;18.33;;;12.48;;
1048;SDS011;513;51.444;7.196;2023-06-01T09:03:20;21.92;;;13.35;;
1048;SDS011;513;51.444;7.196;2023-06-01T09:05:47;17.50;;;12.63;;
1048;SDS011;513;51.444;7.196;2023-06-01T09:08:14;20.50;;;13.23;;
1048;SDS011;513;51.444;7.196;2023-06-01T09:10:41;19.95;;;12.70;;
1048;SDS011;513;51.444;7.196;2023-06-01T09:13:08;18.17;;;12.20;;
1048;SDS011;513;51.444;7.196;2023-06-01T09:15:37;18.50;;;12.55;;
1048;SDS011;513;51.444;7.196;2023-06-01T09:18:16;18.60;;;11.82;;
1048;SDS011;513;51.444;7.196;2023-06-01T09:20:44;17.25;;;11.55;;
1048;SDS011;513;51.444;7.196;2023-06-01T09:23:11;15.95;;;10.95;;
1048;SDS011;513;51.444;7.196;2023-06-01T09:25:38;20.63;;;11.67;;
1048;SDS011;513;51.444;7.196;2023-06-01T09:28:05;18.55;;;11.30;;
1048;SDS011;513;51.444;7.196;2023-06-01T09:30:40;18.33;;;11.73;;
1048;SDS011;513;51.444;7.196;2023-06-01T09:33:09;20.23;;;12.25;;
1048;SDS011;513;51.444;7.196;2023-06-01T09:35:39;18.38;;;12.15;;
1048;SDS011;513;51.444;7.196;2023-06-01T09:38:06;17.85;;;11.75;;
1048;SDS011;513;51.444;7.196;2023-06-01T09:40:33;18.10;;;12.48;;
1048;SDS011;513;51.444;7.196;2023-06-01T09:43:00;17.67;;;11.88;;
1048;SDS011;513;51.444;7.196;2023-06-01T09:45:29;18.58;;;11.00;;
1048;SDS011;513;51.444;7.196;2023-06-01T09:48:15;18.67;;;12.30;;
1048;SDS011;513;51.444;7.196;2023-06-01T09:50:43;21.40;;;12.75;;
1048;SDS011;513;51.444;7.196;2023-06-01T09:53:10;16.08;;;11.60;;
1048;SDS011;513;51.444;7.196;2023-06-01T09:55:40;17.48;;;11.50;;
1048;SDS011;513;51.444;7.196;2023-06-01T09:58:22;17.30;;;11.63;;
1048;SDS011;513;51.444;7.196;2023-06-01T10:00:50;18.75;;;11.32;;
1048;SDS011;513;51.444;7.196;2023-06-01T10:03:19;17.73;;;10.95;;
1048;SDS011;513;51.444;7.196;2023-06-01T10:05:47;16.52;;;11.63;;
1048;SDS011;513;51.444;7.196;2023-06-01T10:08:15;16.45;;;11.68;;
1048;SDS011;513;51.444;7.196;2023-06-01T10:10:42;19.58;;;12.18;;
1048;SDS011;513;51.444;7.196;2023-06-01T10:13:10;18.20;;;11.20;;
1048;SDS011;513;51.444;7.196;2023-06-01T10:15:37;16.48;;;11.45;;
1048;SDS011;513;51.444;7.196;2023-06-01T10:18:04;18.40;;;11.50;;
1048;SDS011;513;51.444;7.196;2023-06-01T10:20:33;17.52;;;11.55;;
1048;SDS011;513;51.444;7.196;2023-06-01T10:23:01;17.85;;;12.07;;
1048;SDS011;513;51.444;7.196;2023-06-01T10:25:28;17.20;;;11.55;;
1048;SDS011;513;51.444;7.196;2023-06-01T10:27:57;17.58;;;11.95;;
1048;SDS011;513;51.444;7.196;2023-06-01T10:30:26;20.90;;;13.37;;
1048;SDS011;513;51.444;7.196;2023-06-01T10:32:53;21.50;;;14.38;;
1048;SDS011;513;51.444;7.196;2023-06-01T10:38:22;22.45;;;13.38;;
1048;SDS011;513;51.444;7.196;2023-06-01T10:40:49;20.20;;;13.15;;
1048;SDS011;513;51.444;7.196;2023-06-01T10:48:59;19.67;;;13.55;;
1048;SDS011;513;51.444;7.196;2023-06-01T10:51:27;23.50;;;13.85;;
1048;SDS011;513;51.444;7.196;2023-06-01T10:53:55;23.02;;;14.50;;
1048;SDS011;513;51.444;7.196;2023-06-01T10:56:42;22.77;;;15.27;;
1048;SDS011;513;51.444;7.196;2023-06-01T10:59:10;23.75;;;15.60;;
1048;SDS011;513;51.444;7.196;2023-06-01T11:01:37;22.55;;;14.52;;
1048;SDS011;513;51.444;7.196;2023-06-01T11:04:05;23.00;;;14.77;;
1048;SDS011;513;51.444;7.196;2023-06-01T11:06:33;22.30;;;14.52;;
1048;SDS011;513;51.444;7.196;2023-06-01T11:09:02;27.73;;;16.05;;
1048;SDS011;513;51.444;7.196;2023-06-01T11:14:17;23.33;;;15.35;;
1048;SDS011;513;51.444;7.196;2023-06-01T11:16:45;22.23;;;15.70;;
1048;SDS011;513;51.444;7.196;2023-06-01T11:19:16;24.15;;;17.40;;
1048;SDS011;513;51.444;7.196;2023-06-01T11:21:45;26.45;;;17.92;;
1048;SDS011;513;51.444;7.196;2023-06-01T11:24:15;26.73;;;17.88;;
1048;SDS011;513;51.444;7.196;2023-06-01T11:26:43;25.52;;;17.05;;
1048;SDS011;513;51.444;7.196;2023-06-01T11:29:12;26.75;;;18.67;;
1048;SDS011;513;51.444;7.196;2023-06-01T11:31:41;24.67;;;17.75;;
1048;SDS011;513;51.444;7.196;2023-06-01T11:34:09;29.60;;;19.27;;
1048;SDS011;513;51.444;7.196;2023-06-01T11:36:37;26.15;;;17.52;;
1048;SDS011;513;51.444;7.196;2023-06-01T11:39:05;21.88;;;16.90;;
1048;SDS011;513;51.444;7.196;2023-06-01T11:41:35;28.40;;;19.42;;
1048;SDS011;513;51.444;7.196;2023-06-01T11:44:02;30.58;;;19.85;;
1048;SDS011;513;51.444;7.196;2023-06-01T11:46:29;27.98;;;18.23;;
1048;SDS011;513;51.444;7.196;2023-06-01T11:49:00;28.95;;;20.38;;
1048;SDS011;513;51.444;7.196;2023-06-01T11:51:28;26.02;;;18.50;;
1048;SDS011;513;51.444;7.196;2023-06-01T11:53:55;26.50;;;18.83;;
1048;SDS011;513;51.444;7.196;2023-06-01T11:56:27;25.63;;;17.75;;
1048;SDS011;513;51.444;7.196;2023-06-01T11:58:57;21.75;;;15.70;;
1048;SDS011;513;51.444;7.196;2023-06-01T12:01:25;26.13;;;16.85;;
1048;SDS011;513;51.444;7.196;2023-06-01T12:03:52;25.38;;;17.48;;
1048;SDS011;513;51.444;7.196;2023-06-01T12:06:20;23.45;;;15.30;;
1048;SDS011;513;51.444;7.196;2023-06-01T12:08:47;22.90;;;15.27;;
1048;SDS011;513;51.444;7.196;2023-06-01T12:11:17;17.70;;;11.47;;
1048;SDS011;513;51.444;7.196;2023-06-01T12:13:44;27.80;;;16.60;;
1048;SDS011;513;51.444;7.196;2023-06-01T12:16:15;23.30;;;15.18;;
1048;SDS011;513;51.444;7.196;2023-06-01T12:18:42;25.83;;;16.02;;
1048;SDS011;513;51.444;7.196;2023-06-01T12:21:10;20.20;;;14.18;;
1048;SDS011;513;51.444;7.196;2023-06-01T12:23:37;21.85;;;13.77;;
1048;SDS011;513;51.444;7.196;2023-06-01T12:26:05;18.77;;;12.93;;
1048;SDS011;513;51.444;7.196;2023-06-01T12:28:49;19.35;;;12.95;;
1048;SDS011;513;51.444;7.196;2023-06-01T12:31:19;18.45;;;12.80;;
1048;SDS011;513;51.444;7.196;2023-06-01T12:33:46;19.25;;;13.63;;
1048;SDS011;513;51.444;7.196;2023-06-01T12:36:30;19.20;;;13.85;;
1048;SDS011;513;51.444;7.196;2023-06-01T12:38:57;20.45;;;14.02;;
1048;SDS011;513;51.444;7.196;2023-06-01T12:41:25;20.58;;;13.27;;
1048;SDS011;513;51.444;7.196;2023-06-01T12:43:52;19.03;;;12.37;;
1048;SDS011;513;51.444;7.196;2023-06-01T12:46:22;16.98;;;11.55;;
1048;SDS011;513;51.444;7.196;2023-06-01T12:48:49;17.87;;;11.87;;
1048;SDS011;513;51.444;7.196;2023-06-01T12:51:18;20.65;;;11.38;;
1048;SDS011;513;51.444;7.196;2023-06-01T12:53:45;15.88;;;9.82;;
1048;SDS011;513;51.444;7.196;2023-06-01T12:56:12;16.42;;;10.90;;
1048;SDS011;513;51.444;7.196;2023-06-01T12:58:40;11.73;;;8.77;;
1048;SDS011;513;51.444;7.196;2023-06-01T13:01:07;18.10;;;10.82;;
1048;SDS011;513;51.444;7.196;2023-06-01T13:03:36;15.05;;;10.82;;
1048;SDS011;513;51.444;7.196;2023-06-01T13:06:03;16.63;;;9.35;;
1048;SDS011;513;51.444;7.196;2023-06-01T13:08:30;15.30;;;10.73;;
1048;SDS011;513;51.444;7.196;2023-06-01T13:10:57;13.48;;;8.70;;
1048;SDS011;513;51.444;7.196;2023-06-01T13:13:24;12.47;;;9.63;;
1048;SDS011;513;51.444;7.196;2023-06-01T13:15:51;15.50;;;9.38;;
1048;SDS011;513;51.444;7.196;2023-06-01T13:18:18;12.70;;;8.75;;
1048;SDS011;513;51.444;7.196;2023-06-01T13:20:47;10.82;;;8.07;;
1048;SDS011;513;51.444;7.196;2023-06-01T13:23:14;12.48;;;8.57;;
1048;SDS011;513;51.444;7.196;2023-06-01T13:25:41;11.50;;;7.63;;
1048;SDS011;513;51.444;7.196;2023-06-01T13:28:08;13.52;;;8.98;;
1048;SDS011;513;51.444;7.196;2023-06-01T13:30:35;12.75;;;8.02;;
1048;SDS011;513;51.444;7.196;2023-06-01T13:33:02;10.98;;;8.00;;
1048;SDS011;513;51.444;7.196;2023-06-01T13:35:29;12.27;;;8.45;;
1048;SDS011;513;51.444;7.196;2023-06-01T13:37:58;13.50;;;8.60;;
1048;SDS011;513;51.444;7.196;2023-06-01T13:40:25;13.05;;;8.18;;
1048;SDS011;513;51.444;7.196;2023-06-01T13:42:52;12.57;;;8.50;;
1048;SDS011;513;51.444;7.196;2023-06-01T13:45:20;20.27;;;9.07;;
1048;SDS011;513;51.444;7.196;2023-06-01T13:47:47;12.05;;;7.20;;
1048;SDS011;513;51.444;7.196;2023-06-01T13:50:15;11.40;;;7.80;;
1048;SDS011;513;51.444;7.196;2023-06-01T13:52:42;11.95;;;7.82;;
1048;SDS011;513;51.444;7.196;2023-06-01T13:55:12;11.57;;;7.82;;
1048;SDS011;513;51.444;7.196;2023-06-01T13:57:39;10.45;;;7.57;;
1048;SDS011;513;51.444;7.196;2023-06-01T14:00:07;9.73;;;7.57;;
1048;SDS011;513;51.444;7.196;2023-06-01T14:02:34;12.02;;;7.93;;
1048;SDS011;513;51.444;7.196;2023-06-01T14:05:01;12.60;;;8.13;;
1048;SDS011;513;51.444;7.196;2023-06-01T14:07:29;13.95;;;7.75;;
1048;SDS011;513;51.444;7.196;2023-06-01T14:09:56;11.98;;;8.25;;
1048;SDS011;513;51.444;7.196;2023-06-01T14:12:24;12.23;;;8.38;;
1048;SDS011;513;51.444;7.196;2023-06-01T14:14:51;10.45;;;7.07;;
1048;SDS011;513;51.444;7.196;2023-06-01T14:17:18;11.60;;;7.70;;
1048;SDS011;513;51.444;7.196;2023-06-01T14:19:45;11.90;;;7.82;;
1048;SDS011;513;51.444;7.196;2023-06-01T14:22:12;11.93;;;7.50;;
1048;SDS011;513;51.444;7.196;2023-06-01T14:24:39;10.10;;;7.20;;
1048;SDS011;513;51.444;7.196;2023-06-01T14:27:06;11.98;;;6.72;;
1048;SDS011;513;51.444;7.196;2023-06-01T14:29:35;9.70;;;7.13;;
1048;SDS011;513;51.444;7.196;2023-06-01T14:32:02;13.82;;;7.80;;
1048;SDS011;513;51.444;7.196;2023-06-01T14:34:29;13.10;;;8.80;;
1048;SDS011;513;51.444;7.196;2023-06-01T14:36:56;13.05;;;8.55;;
1048;SDS011;513;51.444;7.196;2023-06-01T14:39:23;11.80;;;8.23;;
1048;SDS011;513;51.444;7.196;2023-06-01T14:41:51;13.20;;;8.65;;
1048;SDS011;513;51.444;7.196;2023-06-01T14:44:18;13.45;;;8.20;;
1048;SDS011;513;51.444;7.196;2023-06-01T14:46:46;15.27;;;9.10;;
1048;SDS011;513;51.444;7.196;2023-06-01T14:49:13;10.05;;;7.70;;
1048;SDS011;513;51.444;7.196;2023-06-01T14:51:40;12.35;;;7.82;;
1048;SDS011;513;51.444;7.196;2023-06-01T14:54:07;12.05;;;7.78;;
1048;SDS011;513;51.444;7.196;2023-06-01T14:56:34;9.15;;;6.43;;
1048;SDS011;513;51.444;7.196;2023-06-01T14:59:01;10.75;;;8.35;;
1048;SDS011;513;51.444;7.196;2023-06-01T15:01:29;12.65;;;7.85;;
1048;SDS011;513;51.444;7.196;2023-06-01T15:03:57;12.30;;;8.02;;
1048;SDS011;513;51.444;7.196;2023-06-01T15:06:24;13.60;;;8.38;;
1048;SDS011;513;51.444;7.196;2023-06-01T15:08:51;14.40;;;8.32;;
1048;SDS011;513;51.444;7.196;2023-06-01T15:11:18;12.60;;;7.45;;
1048;SDS011;513;51.444;7.196;2023-06-01T15:13:45;12.77;;;8.20;;
1048;SDS011;513;51.444;7.196;2023-06-01T15:16:12;12.35;;;8.00;;
1048;SDS011;513;51.444;7.196;2023-06-01T15:18:39;12.32;;;8.10;;
1048;SDS011;513;51.444;7.196;2023-06-01T15:21:08;11.15;;;8.05;;